createdAt,value
2022-11-04T00:02:12.231Z,79
2022-11-04T00:07:14.036Z,78
2022-11-04T00:12:15.947Z,78
2022-11-04T00:17:17.267Z,77
2022-11-04T00:22:19.175Z,77
2022-11-04T00:27:21.555Z,76
2022-11-04T00:32:23.081Z,75
2022-11-04T00:37:24.817Z,75
2022-11-04T00:42:26.145Z,74
2022-11-04T00:47:27.807Z,74
2022-11-04T00:52:29.661Z,75
2022-11-04T00:57:31.114Z,75
2022-11-04T01:02:33.444Z,75
2022-11-04T01:07:38.465Z,75
2022-11-04T01:12:36.776Z,76
2022-11-04T01:17:38.742Z,76
2022-11-04T01:22:39.980Z,77
2022-11-04T01:27:41.445Z,78
2022-11-04T01:32:43.386Z,78
2022-11-04T01:37:44.876Z,78
2022-11-04T01:42:46.609Z,79
2022-11-04T01:47:48.615Z,79
2022-11-04T01:52:50.082Z,79
2022-11-04T01:57:51.403Z,79
2022-11-04T02:02:53.256Z,79
2022-11-04T02:07:55.061Z,79
2022-11-04T02:12:57.186Z,78
2022-11-04T02:17:58.960Z,78
2022-11-04T02:23:00.814Z,78
2022-11-04T02:28:02.247Z,78
2022-11-04T02:33:04.024Z,78
2022-11-04T02:38:05.686Z,78
2022-11-04T02:43:07.884Z,77
2022-11-04T02:48:09.256Z,77
2022-11-04T02:53:10.988Z,76
2022-11-04T02:58:11.928Z,75
2022-11-04T03:03:13.391Z,75
2022-11-04T03:08:14.666Z,75
2022-11-04T03:13:16.312Z,75
2022-11-04T03:18:17.536Z,74
2022-11-04T03:23:19.389Z,74
2022-11-04T03:28:20.753Z,74
2022-11-04T03:33:22.607Z,74
2022-11-04T03:38:24.461Z,74
2022-11-04T03:43:25.922Z,74
2022-11-04T03:48:27.567Z,73
2022-11-04T03:53:29.560Z,73
2022-11-04T03:58:30.800Z,73
2022-11-04T04:03:32.323Z,72
2022-11-04T04:08:34.112Z,72
2022-11-04T04:13:35.753Z,72
2022-11-04T04:18:37.506Z,72
2022-11-04T04:23:39.124Z,72
2022-11-04T04:28:41.137Z,71
2022-11-04T04:33:42.976Z,71
2022-11-04T04:38:44.132Z,71
2022-11-04T04:43:45.906Z,71
2022-11-04T04:48:47.571Z,71
2022-11-04T04:53:49.704Z,71
2022-11-04T04:58:50.920Z,71
2022-11-04T05:03:52.268Z,70
2022-11-04T05:08:54.265Z,71
2022-11-04T05:13:55.537Z,70
2022-11-04T05:18:57.145Z,71
2022-11-04T05:23:58.517Z,70
2022-11-04T05:29:00.180Z,69
2022-11-04T05:34:02.136Z,70
2022-11-04T05:39:04.040Z,70
2022-11-04T05:44:05.900Z,70
2022-11-04T05:49:07.293Z,71
2022-11-04T05:54:08.597Z,71
2022-11-04T05:59:10.623Z,71
2022-11-04T06:04:12.714Z,72
2022-11-04T06:04:19.001Z,72
2022-11-04T06:09:21.035Z,73
2022-11-04T06:14:22.560Z,75
2022-11-04T06:19:23.742Z,75
2022-11-04T06:24:25.860Z,76
2022-11-04T06:29:27.271Z,77
2022-11-04T06:34:29.103Z,78
2022-11-04T06:39:30.808Z,78
2022-11-04T06:44:32.269Z,77
2022-11-04T06:49:34.000Z,77
2022-11-04T06:54:35.776Z,78
2022-11-04T06:59:37.236Z,78
2022-11-04T07:04:38.796Z,79
2022-11-04T07:09:39.987Z,80
2022-11-04T07:14:41.389Z,80
2022-11-04T07:19:43.209Z,81
2022-11-04T07:24:45.002Z,81
2022-11-04T07:29:46.550Z,80
2022-11-04T07:34:48.283Z,80
2022-11-04T07:39:49.452Z,80
2022-11-04T07:44:50.946Z,81
2022-11-04T07:49:53.015Z,80
2022-11-04T07:54:55.043Z,80
2022-11-04T07:59:56.779Z,83
2022-11-04T08:04:58.617Z,82
2022-11-04T08:10:00.636Z,82
2022-11-04T08:15:02.037Z,82
2022-11-04T08:20:04.142Z,82
2022-11-04T08:25:05.268Z,82
2022-11-04T08:30:06.917Z,83
2022-11-04T08:35:08.855Z,82
2022-11-04T08:40:10.839Z,80
2022-11-04T08:45:12.703Z,80
2022-11-04T08:50:14.683Z,80
2022-11-04T08:55:15.962Z,80
2022-11-04T09:00:17.680Z,79
2022-11-04T09:05:19.470Z,79
2022-11-04T09:10:20.882Z,79
2022-11-04T09:15:22.366Z,78
2022-11-04T09:20:24.281Z,78
2022-11-04T09:25:25.280Z,79
2022-11-04T09:30:26.944Z,79
2022-11-04T09:35:29.017Z,79
2022-11-04T09:40:30.429Z,79
2022-11-04T09:45:32.144Z,79
2022-11-04T09:50:33.470Z,77
2022-11-04T09:55:34.503Z,78
2022-11-04T10:00:36.033Z,78
2022-11-04T10:05:37.963Z,77
2022-11-04T10:10:39.908Z,78
2022-11-04T10:15:41.097Z,77
2022-11-04T10:20:43.867Z,76
2022-11-04T10:25:43.631Z,77
2022-11-04T10:30:45.421Z,76
2022-11-04T10:35:47.296Z,75
2022-11-04T10:40:48.764Z,75
2022-11-04T10:45:50.551Z,76
2022-11-04T10:50:52.388Z,76
2022-11-04T10:55:54.387Z,75
2022-11-04T11:00:56.221Z,75
2022-11-04T11:05:58.174Z,75
2022-11-04T11:10:59.309Z,75
2022-11-04T11:16:00.924Z,75
2022-11-04T11:21:02.892Z,75
2022-11-04T11:26:04.716Z,75
2022-11-04T11:31:06.261Z,73
2022-11-04T11:36:08.312Z,74
2022-11-04T11:41:25.989Z,73
2022-11-04T11:46:11.252Z,72
2022-11-04T11:51:12.484Z,72
2022-11-04T11:56:13.978Z,73
2022-11-04T12:01:21.861Z,72
2022-11-04T12:06:18.172Z,72
2022-11-04T12:31:25.874Z,73
2022-11-04T12:36:27.106Z,72
2022-11-04T12:41:52.690Z,71
2022-11-04T12:51:31.452Z,70
2022-11-04T13:01:35.458Z,71
2022-11-04T13:06:36.744Z,70
2022-11-04T13:11:38.610Z,70
2022-11-04T13:16:40.093Z,72
2022-11-04T13:21:42.068Z,72
2022-11-04T13:26:44.071Z,71
2022-11-04T13:31:45.614Z,71
2022-11-04T13:36:46.865Z,71
2022-11-04T13:41:48.572Z,71
2022-11-04T13:46:50.137Z,72
2022-11-04T13:51:51.487Z,72
2022-11-04T13:56:53.106Z,71
2022-11-04T14:01:54.528Z,71
2022-11-04T14:06:56.482Z,72
2022-11-04T14:11:57.920Z,73
2022-11-04T14:16:59.938Z,74
2022-11-04T14:22:01.618Z,74
2022-11-04T14:27:03.032Z,74
2022-11-04T14:32:04.878Z,75
2022-11-04T14:37:06.502Z,76
2022-11-04T14:42:08.041Z,77
2022-11-04T14:47:09.992Z,77
2022-11-04T14:52:11.175Z,78
2022-11-04T14:57:12.832Z,77
2022-11-04T15:02:14.550Z,77
2022-11-04T15:07:15.954Z,77
2022-11-04T15:12:17.644Z,78
2022-11-04T15:17:19.592Z,79
2022-11-04T15:22:21.060Z,79
2022-11-04T15:27:22.357Z,80
2022-11-04T15:32:23.581Z,79
2022-11-04T15:37:25.020Z,79
2022-11-04T15:42:26.912Z,80
2022-11-04T15:47:28.610Z,81
2022-11-04T15:52:30.133Z,80
2022-11-04T15:57:31.877Z,81
2022-11-04T16:02:33.615Z,80
2022-11-04T16:07:34.869Z,80
2022-11-04T16:12:37.012Z,79
2022-11-04T16:17:38.244Z,78
2022-11-04T16:22:39.789Z,79
2022-11-04T16:27:41.865Z,79
2022-11-04T16:32:43.664Z,77
2022-11-04T16:37:45.010Z,78
2022-11-04T16:42:46.437Z,77
2022-11-04T16:47:47.603Z,76
2022-11-04T16:52:49.015Z,76
2022-11-04T16:57:50.273Z,75
2022-11-04T17:02:51.849Z,75
2022-11-04T17:07:56.430Z,75
2022-11-04T17:12:54.822Z,74
2022-11-04T17:17:56.079Z,74
2022-11-04T17:22:57.831Z,74
2022-11-04T17:27:59.487Z,74
2022-11-04T17:33:01.267Z,75
2022-11-04T17:38:02.480Z,76
2022-11-04T17:43:08.511Z,76
2022-11-04T17:48:05.921Z,76
2022-11-04T17:53:07.529Z,77
2022-11-04T17:58:09.124Z,77
2022-11-04T18:03:11.508Z,77
2022-11-04T18:08:13.003Z,77
2022-11-04T18:13:15.055Z,77
2022-11-04T18:18:16.902Z,78
2022-11-04T18:23:18.373Z,77
2022-11-04T18:28:20.358Z,78
2022-11-04T18:33:21.548Z,78
2022-11-04T18:38:23.643Z,78
2022-11-04T18:43:24.864Z,78
2022-11-04T18:48:27.007Z,78
2022-11-04T18:53:28.915Z,79
2022-11-04T18:58:30.899Z,79
2022-11-04T19:03:32.684Z,79
2022-11-04T19:08:33.972Z,78
2022-11-04T19:13:35.684Z,78
2022-11-04T19:18:37.276Z,77
2022-11-04T19:23:38.642Z,76
2022-11-04T19:28:47.977Z,76
2022-11-04T19:33:42.431Z,76
2022-11-04T19:38:44.061Z,76
2022-11-04T19:43:45.634Z,77
2022-11-04T19:48:46.840Z,78
2022-11-04T19:53:48.021Z,77
2022-11-04T19:58:49.571Z,77
2022-11-04T20:03:50.924Z,77
2022-11-04T20:08:52.930Z,77
2022-11-04T20:13:54.469Z,77
2022-11-04T20:18:55.778Z,78
2022-11-04T20:23:57.076Z,78
2022-11-04T20:28:58.381Z,78
2022-11-04T20:34:00.180Z,78
2022-11-04T20:39:01.630Z,79
2022-11-04T20:44:03.908Z,79
2022-11-04T20:49:05.250Z,79
2022-11-04T20:54:07.245Z,79
2022-11-04T20:59:08.688Z,79
2022-11-04T21:04:10.856Z,79
2022-11-04T21:09:12.732Z,80
2022-11-04T21:14:14.428Z,80
2022-11-04T21:19:16.438Z,79
2022-11-04T21:24:17.742Z,79
2022-11-04T21:29:19.544Z,80
2022-11-04T21:34:21.784Z,80
2022-11-04T21:39:23.255Z,80
2022-11-04T21:44:25.320Z,80
2022-11-04T21:49:26.714Z,80
2022-11-04T21:54:28.468Z,79
2022-11-04T21:59:30.245Z,79
2022-11-04T22:04:31.651Z,79
2022-11-04T22:09:33.288Z,79
2022-11-04T22:14:34.617Z,79
2022-11-04T22:19:36.618Z,80
2022-11-04T22:24:38.119Z,79
2022-11-04T22:29:39.894Z,79
2022-11-04T22:34:41.859Z,79
2022-11-04T22:39:43.536Z,79
2022-11-04T22:44:44.922Z,78
2022-11-04T22:49:46.360Z,78
2022-11-04T22:50:01.600Z,78
2022-11-04T22:55:02.818Z,78
2022-11-04T23:15:09.562Z,78
2022-11-04T23:20:11.443Z,78
2022-11-04T23:25:13.149Z,78
2022-11-04T23:30:14.426Z,78
2022-11-04T23:35:15.707Z,79
2022-11-04T23:40:16.837Z,79
2022-11-04T23:45:18.412Z,79
2022-11-04T23:50:19.921Z,79
2022-11-04T23:55:22.099Z,78
